sensor_id;sensor_type;location;lat;lon;timestamp;temperature;humidity
75719;DHT22;64340;48.534;-3.036;2024-01-15T00:00:08;16.70;61.00
75719;DHT22;64340;48.534;-3.036;2024-01-15T00:02:34;16.70;61.10
75719;DHT22;64340;48.534;-3.036;2024-01-15T00:04:59;16.60;61.20
75719;DHT22;64340;48.534;-3.036;2024-01-15T00:07:25;16.60;61.20
75719;DHT22;64340;48.534;-3.036;2024-01-15T00:09:51;16.60;61.20
75719;DHT22;64340;48.534;-3.036;2024-01-15T00:12:16;16.60;61.30
75719;DHT22;64340;48.534;-3.036;2024-01-15T00:14:42;16.60;61.20
75719;DHT22;64340;48.534;-3.036;2024-01-15T00:17:08;16.50;61.30
75719;DHT22;64340;48.534;-3.036;2024-01-15T00:19:33;16.50;61.40
75719;DHT22;64340;48.534;-3.036;2024-01-15T00:21:59;16.50;61.20
75719;DHT22;64340;48.534;-3.036;2024-01-15T00:24:25;16.50;61.20
75719;DHT22;64340;48.534;-3.036;2024-01-15T00:26:51;16.50;61.20
75719;DHT22;64340;48.534;-3.036;2024-01-15T00:29:16;16.40;61.20
75719;DHT22;64340;48.534;-3.036;2024-01-15T00:31:42;16.40;61.10
75719;DHT22;64340;48.534;-3.036;2024-01-15T00:34:08;16.40;61.10
75719;DHT22;64340;48.534;-3.036;2024-01-15T00:36:34;16.40;61.10
75719;DHT22;64340;48.534;-3.036;2024-01-15T00:38:59;16.40;61.00
75719;DHT22;64340;48.534;-3.036;2024-01-15T00:41:25;16.40;61.10
75719;DHT22;64340;48.534;-3.036;2024-01-15T00:43:53;16.40;61.00
75719;DHT22;64340;48.534;-3.036;2024-01-15T00:46:19;16.40;61.00
75719;DHT22;64340;48.534;-3.036;2024-01-15T00:48:44;16.30;61.10
75719;DHT22;64340;48.534;-3.036;2024-01-15T00:51:10;16.30;60.90
75719;DHT22;64340;48.534;-3.036;2024-01-15T00:53:36;16.20;61.00
75719;DHT22;64340;48.534;-3.036;2024-01-15T00:56:02;16.20;60.90
75719;DHT22;64340;48.534;-3.036;2024-01-15T00:58:28;16.20;61.00
75719;DHT22;64340;48.534;-3.036;2024-01-15T01:00:54;16.20;60.90
75719;DHT22;64340;48.534;-3.036;2024-01-15T01:03:20;16.10;60.90
75719;DHT22;64340;48.534;-3.036;2024-01-15T01:05:48;16.10;61.00
75719;DHT22;64340;48.534;-3.036;2024-01-15T01:08:15;16.10;61.00
75719;DHT22;64340;48.534;-3.036;2024-01-15T01:10:41;16.00;60.90
75719;DHT22;64340;48.534;-3.036;2024-01-15T01:13:08;16.00;60.90
75719;DHT22;64340;48.534;-3.036;2024-01-15T01:15:34;16.00;60.90
75719;DHT22;64340;48.534;-3.036;2024-01-15T01:18:00;16.00;60.90
75719;DHT22;64340;48.534;-3.036;2024-01-15T01:20:25;16.00;61.00
75719;DHT22;64340;48.534;-3.036;2024-01-15T01:22:51;16.00;60.90
75719;DHT22;64340;48.534;-3.036;2024-01-15T01:25:17;16.00;60.80
75719;DHT22;64340;48.534;-3.036;2024-01-15T01:27:43;16.00;60.90
75719;DHT22;64340;48.534;-3.036;2024-01-15T01:30:09;15.90;60.80
75719;DHT22;64340;48.534;-3.036;2024-01-15T01:32:34;15.80;60.90
75719;DHT22;64340;48.534;-3.036;2024-01-15T01:35:01;15.80;60.80
75719;DHT22;64340;48.534;-3.036;2024-01-15T01:37:26;15.80;60.80
75719;DHT22;64340;48.534;-3.036;2024-01-15T01:39:52;15.80;60.70
75719;DHT22;64340;48.534;-3.036;2024-01-15T01:42:18;15.80;60.70
75719;DHT22;64340;48.534;-3.036;2024-01-15T01:44:43;15.80;60.70
75719;DHT22;64340;48.534;-3.036;2024-01-15T01:47:09;15.80;60.70
75719;DHT22;64340;48.534;-3.036;2024-01-15T01:49:37;15.80;60.70
75719;DHT22;64340;48.534;-3.036;2024-01-15T01:52:04;15.70;60.70
75719;DHT22;64340;48.534;-3.036;2024-01-15T01:54:32;15.70;60.70
75719;DHT22;64340;48.534;-3.036;2024-01-15T01:56:58;15.60;60.60
75719;DHT22;64340;48.534;-3.036;2024-01-15T01:59:28;15.60;60.50
75719;DHT22;64340;48.534;-3.036;2024-01-15T02:01:57;15.60;60.60
75719;DHT22;64340;48.534;-3.036;2024-01-15T02:04:24;15.60;60.50
75719;DHT22;64340;48.534;-3.036;2024-01-15T02:06:51;15.60;60.50
75719;DHT22;64340;48.534;-3.036;2024-01-15T02:09:19;15.60;60.50
75719;DHT22;64340;48.534;-3.036;2024-01-15T02:11:48;15.50;60.50
75719;DHT22;64340;48.534;-3.036;2024-01-15T02:14:14;15.50;60.40
75719;DHT22;64340;48.534;-3.036;2024-01-15T02:16:40;15.50;60.40
75719;DHT22;64340;48.534;-3.036;2024-01-15T02:19:06;15.50;60.40
75719;DHT22;64340;48.534;-3.036;2024-01-15T02:21:32;15.50;60.30
75719;DHT22;64340;48.534;-3.036;2024-01-15T02:23:58;15.50;60.40
75719;DHT22;64340;48.534;-3.036;2024-01-15T02:26:25;15.40;60.30
75719;DHT22;64340;48.534;-3.036;2024-01-15T02:28:51;15.40;60.30
75719;DHT22;64340;48.534;-3.036;2024-01-15T02:31:17;15.40;60.20
75719;DHT22;64340;48.534;-3.036;2024-01-15T02:33:43;15.40;60.20
75719;DHT22;64340;48.534;-3.036;2024-01-15T02:36:11;15.30;60.20
75719;DHT22;64340;48.534;-3.036;2024-01-15T02:38:37;15.30;60.20
75719;DHT22;64340;48.534;-3.036;2024-01-15T02:41:03;15.30;60.10
75719;DHT22;64340;48.534;-3.036;2024-01-15T02:43:29;15.30;60.10
75719;DHT22;64340;48.534;-3.036;2024-01-15T02:45:54;15.30;60.10
75719;DHT22;64340;48.534;-3.036;2024-01-15T02:48:20;15.30;60.00
75719;DHT22;64340;48.534;-3.036;2024-01-15T02:50:46;15.20;60.00
75719;DHT22;64340;48.534;-3.036;2024-01-15T02:53:11;15.20;60.00
75719;DHT22;64340;48.534;-3.036;2024-01-15T02:55:37;15.20;60.00
75719;DHT22;64340;48.534;-3.036;2024-01-15T02:58:04;15.20;60.00
75719;DHT22;64340;48.534;-3.036;2024-01-15T03:00:29;15.20;60.00
75719;DHT22;64340;48.534;-3.036;2024-01-15T03:02:55;15.10;59.90
75719;DHT22;64340;48.534;-3.036;2024-01-15T03:05:21;15.10;59.90
75719;DHT22;64340;48.534;-3.036;2024-01-15T03:07:47;15.00;59.90
75719;DHT22;64340;48.534;-3.036;2024-01-15T03:10:13;15.00;59.80
75719;DHT22;64340;48.534;-3.036;2024-01-15T03:12:39;15.00;59.80
75719;DHT22;64340;48.534;-3.036;2024-01-15T03:15:05;15.00;59.80
75719;DHT22;64340;48.534;-3.036;2024-01-15T03:17:30;15.00;59.80
75719;DHT22;64340;48.534;-3.036;2024-01-15T03:19:56;15.00;59.80
75719;DHT22;64340;48.534;-3.036;2024-01-15T03:22:22;15.00;59.70
75719;DHT22;64340;48.534;-3.036;2024-01-15T03:24:48;15.00;59.70
75719;DHT22;64340;48.534;-3.036;2024-01-15T03:27:13;14.90;59.70
75719;DHT22;64340;48.534;-3.036;2024-01-15T03:29:41;14.90;59.70
75719;DHT22;64340;48.534;-3.036;2024-01-15T03:32:07;14.90;59.70
75719;DHT22;64340;48.534;-3.036;2024-01-15T03:34:32;14.90;59.70
75719;DHT22;64340;48.534;-3.036;2024-01-15T03:36:58;14.90;59.60
75719;DHT22;64340;48.534;-3.036;2024-01-15T03:39:25;14.80;59.60
75719;DHT22;64340;48.534;-3.036;2024-01-15T03:41:51;14.80;59.60
75719;DHT22;64340;48.534;-3.036;2024-01-15T03:44:16;14.80;59.60
75719;DHT22;64340;48.534;-3.036;2024-01-15T03:46:42;14.80;59.60
75719;DHT22;64340;48.534;-3.036;2024-01-15T03:49:08;14.70;59.50
75719;DHT22;64340;48.534;-3.036;2024-01-15T03:51:33;14.80;59.50
75719;DHT22;64340;48.534;-3.036;2024-01-15T03:53:59;14.70;59.50
75719;DHT22;64340;48.534;-3.036;2024-01-15T03:56:25;14.70;59.40
75719;DHT22;64340;48.534;-3.036;2024-01-15T03:58:51;14.70;59.40
75719;DHT22;64340;48.534;-3.036;2024-01-15T04:01:16;14.70;59.50
75719;DHT22;64340;48.534;-3.036;2024-01-15T04:03:42;14.60;59.40
75719;DHT22;64340;48.534;-3.036;2024-01-15T04:06:08;14.60;59.40
75719;DHT22;64340;48.534;-3.036;2024-01-15T04:08:33;14.60;59.40
75719;DHT22;64340;48.534;-3.036;2024-01-15T04:10:59;14.60;59.50
75719;DHT22;64340;48.534;-3.036;2024-01-15T04:13:25;14.60;59.40
75719;DHT22;64340;48.534;-3.036;2024-01-15T04:15:51;14.60;59.40
75719;DHT22;64340;48.534;-3.036;2024-01-15T04:18:16;14.50;59.30
75719;DHT22;64340;48.534;-3.036;2024-01-15T04:20:43;14.50;59.30
75719;DHT22;64340;48.534;-3.036;2024-01-15T04:23:09;14.50;59.30
75719;DHT22;64340;48.534;-3.036;2024-01-15T04:25:35;14.50;59.40
75719;DHT22;64340;48.534;-3.036;2024-01-15T04:28:01;14.50;59.30
75719;DHT22;64340;48.534;-3.036;2024-01-15T04:30:27;14.50;59.20
75719;DHT22;64340;48.534;-3.036;2024-01-15T04:32:52;14.50;59.30
75719;DHT22;64340;48.534;-3.036;2024-01-15T04:35:18;14.40;59.30
75719;DHT22;64340;48.534;-3.036;2024-01-15T04:37:44;14.40;59.10
75719;DHT22;64340;48.534;-3.036;2024-01-15T04:40:10;14.40;59.30
75719;DHT22;64340;48.534;-3.036;2024-01-15T04:42:35;14.40;59.20
75719;DHT22;64340;48.534;-3.036;2024-01-15T04:45:01;14.40;59.20
75719;DHT22;64340;48.534;-3.036;2024-01-15T04:47:27;14.30;59.10
75719;DHT22;64340;48.534;-3.036;2024-01-15T04:49:52;14.30;59.00
75719;DHT22;64340;48.534;-3.036;2024-01-15T04:52:18;14.30;59.20
75719;DHT22;64340;48.534;-3.036;2024-01-15T04:54:44;14.30;59.10
75719;DHT22;64340;48.534;-3.036;2024-01-15T04:57:10;14.30;59.00
75719;DHT22;64340;48.534;-3.036;2024-01-15T04:59:35;14.30;59.00
75719;DHT22;64340;48.534;-3.036;2024-01-15T05:02:01;14.20;59.00
75719;DHT22;64340;48.534;-3.036;2024-01-15T05:04:27;14.30;59.00
75719;DHT22;64340;48.534;-3.036;2024-01-15T05:06:53;14.20;59.00
75719;DHT22;64340;48.534;-3.036;2024-01-15T05:09:19;14.20;58.90
75719;DHT22;64340;48.534;-3.036;2024-01-15T05:11:45;14.20;58.90
75719;DHT22;64340;48.534;-3.036;2024-01-15T05:14:10;14.20;58.80
75719;DHT22;64340;48.534;-3.036;2024-01-15T05:16:40;14.10;58.90
75719;DHT22;64340;48.534;-3.036;2024-01-15T05:19:07;14.00;58.90
75719;DHT22;64340;48.534;-3.036;2024-01-15T05:21:33;14.00;59.10
75719;DHT22;64340;48.534;-3.036;2024-01-15T05:23:58;13.90;59.10
75719;DHT22;64340;48.534;-3.036;2024-01-15T05:26:24;13.90;59.00
75719;DHT22;64340;48.534;-3.036;2024-01-15T05:28:50;13.90;59.00
75719;DHT22;64340;48.534;-3.036;2024-01-15T05:31:15;13.90;59.20
75719;DHT22;64340;48.534;-3.036;2024-01-15T05:33:41;13.90;59.30
75719;DHT22;64340;48.534;-3.036;2024-01-15T05:36:07;13.90;59.50
75719;DHT22;64340;48.534;-3.036;2024-01-15T05:38:32;13.90;59.70
75719;DHT22;64340;48.534;-3.036;2024-01-15T05:40:58;13.90;59.50
75719;DHT22;64340;48.534;-3.036;2024-01-15T05:43:24;13.90;59.30
75719;DHT22;64340;48.534;-3.036;2024-01-15T05:45:49;13.90;59.20
75719;DHT22;64340;48.534;-3.036;2024-01-15T05:48:15;13.90;59.40
75719;DHT22;64340;48.534;-3.036;2024-01-15T05:50:41;13.90;59.70
75719;DHT22;64340;48.534;-3.036;2024-01-15T05:53:07;13.90;59.80
75719;DHT22;64340;48.534;-3.036;2024-01-15T05:55:33;13.90;60.20
75719;DHT22;64340;48.534;-3.036;2024-01-15T05:57:58;13.90;60.30
75719;DHT22;64340;48.534;-3.036;2024-01-15T06:00:24;13.90;60.30
75719;DHT22;64340;48.534;-3.036;2024-01-15T06:02:50;13.90;61.00
75719;DHT22;64340;48.534;-3.036;2024-01-15T06:05:15;13.90;61.50
75719;DHT22;64340;48.534;-3.036;2024-01-15T06:07:41;13.80;61.90
75719;DHT22;64340;48.534;-3.036;2024-01-15T06:10:07;13.90;62.50
75719;DHT22;64340;48.534;-3.036;2024-01-15T06:12:33;13.90;62.60
75719;DHT22;64340;48.534;-3.036;2024-01-15T06:14:59;13.80;62.90
75719;DHT22;64340;48.534;-3.036;2024-01-15T06:17:25;13.80;63.60
75719;DHT22;64340;48.534;-3.036;2024-01-15T06:19:50;13.80;63.10
75719;DHT22;64340;48.534;-3.036;2024-01-15T06:22:16;13.70;63.00
75719;DHT22;64340;48.534;-3.036;2024-01-15T06:24:42;13.70;63.20
75719;DHT22;64340;48.534;-3.036;2024-01-15T06:27:08;13.70;63.40
75719;DHT22;64340;48.534;-3.036;2024-01-15T06:29:36;13.60;63.30
75719;DHT22;64340;48.534;-3.036;2024-01-15T06:32:03;13.70;63.20
75719;DHT22;64340;48.534;-3.036;2024-01-15T06:34:28;13.70;63.00
75719;DHT22;64340;48.534;-3.036;2024-01-15T06:36:54;13.70;63.00
75719;DHT22;64340;48.534;-3.036;2024-01-15T06:39:20;13.70;62.90
75719;DHT22;64340;48.534;-3.036;2024-01-15T06:41:45;13.70;62.70
75719;DHT22;64340;48.534;-3.036;2024-01-15T06:44:11;13.70;62.70
75719;DHT22;64340;48.534;-3.036;2024-01-15T06:46:45;13.70;62.50
75719;DHT22;64340;48.534;-3.036;2024-01-15T06:49:11;13.70;62.50
75719;DHT22;64340;48.534;-3.036;2024-01-15T06:51:37;13.70;62.40
75719;DHT22;64340;48.534;-3.036;2024-01-15T06:54:03;13.70;62.40
75719;DHT22;64340;48.534;-3.036;2024-01-15T06:56:29;13.70;62.20
75719;DHT22;64340;48.534;-3.036;2024-01-15T06:58:55;13.70;62.20
75719;DHT22;64340;48.534;-3.036;2024-01-15T07:01:20;13.60;62.20
75719;DHT22;64340;48.534;-3.036;2024-01-15T07:03:46;13.60;62.20
75719;DHT22;64340;48.534;-3.036;2024-01-15T07:06:12;13.70;62.20
75719;DHT22;64340;48.534;-3.036;2024-01-15T07:08:39;13.60;62.10
75719;DHT22;64340;48.534;-3.036;2024-01-15T07:11:05;13.60;62.00
75719;DHT22;64340;48.534;-3.036;2024-01-15T07:13:31;13.60;61.90
75719;DHT22;64340;48.534;-3.036;2024-01-15T07:15:57;13.60;61.80
75719;DHT22;64340;48.534;-3.036;2024-01-15T07:18:23;13.60;61.80
75719;DHT22;64340;48.534;-3.036;2024-01-15T07:20:49;13.50;61.60
75719;DHT22;64340;48.534;-3.036;2024-01-15T07:23:15;13.50;61.70
75719;DHT22;64340;48.534;-3.036;2024-01-15T07:25:41;13.50;61.70
75719;DHT22;64340;48.534;-3.036;2024-01-15T07:28:06;13.50;61.60
75719;DHT22;64340;48.534;-3.036;2024-01-15T07:30:32;13.40;61.50
75719;DHT22;64340;48.534;-3.036;2024-01-15T07:32:58;13.30;61.50
75719;DHT22;64340;48.534;-3.036;2024-01-15T07:35:24;13.30;61.50
75719;DHT22;64340;48.534;-3.036;2024-01-15T07:37:49;13.30;61.50
75719;DHT22;64340;48.534;-3.036;2024-01-15T07:40:15;13.30;61.40
75719;DHT22;64340;48.534;-3.036;2024-01-15T07:42:41;13.30;61.30
75719;DHT22;64340;48.534;-3.036;2024-01-15T07:45:09;13.30;61.20
75719;DHT22;64340;48.534;-3.036;2024-01-15T07:47:34;13.30;61.10
75719;DHT22;64340;48.534;-3.036;2024-01-15T07:50:00;13.20;61.10
75719;DHT22;64340;48.534;-3.036;2024-01-15T07:52:26;13.20;61.00
75719;DHT22;64340;48.534;-3.036;2024-01-15T07:54:51;13.20;61.00
75719;DHT22;64340;48.534;-3.036;2024-01-15T07:57:17;13.20;61.00
75719;DHT22;64340;48.534;-3.036;2024-01-15T07:59:43;13.10;60.90
75719;DHT22;64340;48.534;-3.036;2024-01-15T08:02:09;13.10;60.80
75719;DHT22;64340;48.534;-3.036;2024-01-15T08:04:37;13.10;60.80
75719;DHT22;64340;48.534;-3.036;2024-01-15T08:07:03;13.10;60.70
75719;DHT22;64340;48.534;-3.036;2024-01-15T08:09:29;13.10;60.50
75719;DHT22;64340;48.534;-3.036;2024-01-15T08:11:55;13.10;60.50
75719;DHT22;64340;48.534;-3.036;2024-01-15T08:14:21;13.10;60.50
75719;DHT22;64340;48.534;-3.036;2024-01-15T08:16:46;13.10;60.40
75719;DHT22;64340;48.534;-3.036;2024-01-15T08:19:12;13.10;60.30
75719;DHT22;64340;48.534;-3.036;2024-01-15T08:21:39;13.10;60.30
75719;DHT22;64340;48.534;-3.036;2024-01-15T08:24:05;13.10;60.20
75719;DHT22;64340;48.534;-3.036;2024-01-15T08:26:31;13.00;60.20
75719;DHT22;64340;48.534;-3.036;2024-01-15T08:28:58;13.00;60.20
75719;DHT22;64340;48.534;-3.036;2024-01-15T08:31:24;13.00;60.20
75719;DHT22;64340;48.534;-3.036;2024-01-15T08:33:49;13.00;60.10
75719;DHT22;64340;48.534;-3.036;2024-01-15T08:36:15;13.00;60.00
75719;DHT22;64340;48.534;-3.036;2024-01-15T08:38:41;13.00;60.00
75719;DHT22;64340;48.534;-3.036;2024-01-15T08:41:07;13.00;59.90
75719;DHT22;64340;48.534;-3.036;2024-01-15T08:43:34;13.00;59.90
75719;DHT22;64340;48.534;-3.036;2024-01-15T08:46:00;13.00;59.90
75719;DHT22;64340;48.534;-3.036;2024-01-15T08:48:26;13.10;59.80
75719;DHT22;64340;48.534;-3.036;2024-01-15T08:50:56;13.00;59.70
75719;DHT22;64340;48.534;-3.036;2024-01-15T08:53:22;13.00;59.60
75719;DHT22;64340;48.534;-3.036;2024-01-15T08:55:48;13.00;59.60
75719;DHT22;64340;48.534;-3.036;2024-01-15T08:58:14;13.00;59.70
75719;DHT22;64340;48.534;-3.036;2024-01-15T09:00:40;13.00;59.70
75719;DHT22;64340;48.534;-3.036;2024-01-15T09:03:06;12.90;59.60
75719;DHT22;64340;48.534;-3.036;2024-01-15T09:05:32;13.00;59.50
75719;DHT22;64340;48.534;-3.036;2024-01-15T09:07:57;13.00;59.50
75719;DHT22;64340;48.534;-3.036;2024-01-15T09:10:23;13.00;59.50
75719;DHT22;64340;48.534;-3.036;2024-01-15T09:12:49;12.90;59.60
75719;DHT22;64340;48.534;-3.036;2024-01-15T09:15:15;13.00;59.50
75719;DHT22;64340;48.534;-3.036;2024-01-15T09:17:41;12.90;59.50
75719;DHT22;64340;48.534;-3.036;2024-01-15T09:20:08;13.00;59.50
75719;DHT22;64340;48.534;-3.036;2024-01-15T09:22:35;12.90;59.40
75719;DHT22;64340;48.534;-3.036;2024-01-15T09:25:01;12.90;59.40
75719;DHT22;64340;48.534;-3.036;2024-01-15T09:27:27;12.90;59.40
75719;DHT22;64340;48.534;-3.036;2024-01-15T09:29:53;12.90;59.30
75719;DHT22;64340;48.534;-3.036;2024-01-15T09:32:19;12.90;59.30
75719;DHT22;64340;48.534;-3.036;2024-01-15T09:34:46;12.90;59.30
75719;DHT22;64340;48.534;-3.036;2024-01-15T09:37:13;12.90;59.30
75719;DHT22;64340;48.534;-3.036;2024-01-15T09:39:39;12.90;59.30
75719;DHT22;64340;48.534;-3.036;2024-01-15T09:42:05;12.90;59.30
75719;DHT22;64340;48.534;-3.036;2024-01-15T09:44:31;12.90;59.20
75719;DHT22;64340;48.534;-3.036;2024-01-15T09:46:57;12.90;59.20
75719;DHT22;64340;48.534;-3.036;2024-01-15T09:49:23;12.90;59.20
75719;DHT22;64340;48.534;-3.036;2024-01-15T09:51:49;12.90;59.30
75719;DHT22;64340;48.534;-3.036;2024-01-15T09:54:18;12.90;59.30
75719;DHT22;64340;48.534;-3.036;2024-01-15T09:56:47;12.90;59.20
75719;DHT22;64340;48.534;-3.036;2024-01-15T09:59:19;12.90;59.30
75719;DHT22;64340;48.534;-3.036;2024-01-15T10:01:45;12.90;59.20
75719;DHT22;64340;48.534;-3.036;2024-01-15T10:04:13;12.90;59.20
75719;DHT22;64340;48.534;-3.036;2024-01-15T10:06:39;12.90;59.20
75719;DHT22;64340;48.534;-3.036;2024-01-15T10:09:08;12.90;59.10
75719;DHT22;64340;48.534;-3.036;2024-01-15T10:11:35;12.90;59.10
75719;DHT22;64340;48.534;-3.036;2024-01-15T10:14:01;12.90;59.10
75719;DHT22;64340;48.534;-3.036;2024-01-15T10:16:27;12.90;59.10
75719;DHT22;64340;48.534;-3.036;2024-01-15T10:18:52;12.90;59.00
75719;DHT22;64340;48.534;-3.036;2024-01-15T10:21:18;12.90;59.00
75719;DHT22;64340;48.534;-3.036;2024-01-15T10:23:44;12.90;59.00
75719;DHT22;64340;48.534;-3.036;2024-01-15T10:26:10;12.90;58.80
75719;DHT22;64340;48.534;-3.036;2024-01-15T10:28:37;12.90;58.80
75719;DHT22;64340;48.534;-3.036;2024-01-15T10:31:03;12.90;58.70
75719;DHT22;64340;48.534;-3.036;2024-01-15T10:33:30;12.90;58.60
75719;DHT22;64340;48.534;-3.036;2024-01-15T10:36:00;13.00;58.60
75719;DHT22;64340;48.534;-3.036;2024-01-15T10:38:26;12.90;58.60
75719;DHT22;64340;48.534;-3.036;2024-01-15T10:40:53;12.90;58.60
75719;DHT22;64340;48.534;-3.036;2024-01-15T10:43:19;12.90;58.50
75719;DHT22;64340;48.534;-3.036;2024-01-15T10:45:46;12.90;58.50
75719;DHT22;64340;48.534;-3.036;2024-01-15T10:48:12;12.90;58.50
75719;DHT22;64340;48.534;-3.036;2024-01-15T10:50:38;12.90;58.50
75719;DHT22;64340;48.534;-3.036;2024-01-15T10:53:05;12.90;58.50
75719;DHT22;64340;48.534;-3.036;2024-01-15T10:55:32;12.90;58.50
75719;DHT22;64340;48.534;-3.036;2024-01-15T10:57:59;12.90;58.50
75719;DHT22;64340;48.534;-3.036;2024-01-15T11:00:25;12.90;58.40
75719;DHT22;64340;48.534;-3.036;2024-01-15T11:02:52;13.00;58.40
75719;DHT22;64340;48.534;-3.036;2024-01-15T11:05:21;12.90;58.40
75719;DHT22;64340;48.534;-3.036;2024-01-15T11:07:49;12.90;58.40
75719;DHT22;64340;48.534;-3.036;2024-01-15T11:10:50;12.90;58.30
75719;DHT22;64340;48.534;-3.036;2024-01-15T11:13:40;12.90;58.40
75719;DHT22;64340;48.534;-3.036;2024-01-15T11:16:07;13.00;58.20
75719;DHT22;64340;48.534;-3.036;2024-01-15T11:18:39;13.00;58.20
75719;DHT22;64340;48.534;-3.036;2024-01-15T11:23:47;13.10;58.20
75719;DHT22;64340;48.534;-3.036;2024-01-15T11:29:10;13.10;58.10
75719;DHT22;64340;48.534;-3.036;2024-01-15T11:34:21;13.10;58.10
75719;DHT22;64340;48.534;-3.036;2024-01-15T11:37:07;13.10;58.00
75719;DHT22;64340;48.534;-3.036;2024-01-15T11:42:00;13.10;58.20
75719;DHT22;64340;48.534;-3.036;2024-01-15T11:44:27;13.10;58.20
75719;DHT22;64340;48.534;-3.036;2024-01-15T11:47:06;13.10;58.10
75719;DHT22;64340;48.534;-3.036;2024-01-15T11:52:22;13.10;58.00
75719;DHT22;64340;48.534;-3.036;2024-01-15T11:55:19;13.10;57.90
75719;DHT22;64340;48.534;-3.036;2024-01-15T11:57:52;13.10;57.80
75719;DHT22;64340;48.534;-3.036;2024-01-15T12:00:20;13.10;57.70
75719;DHT22;64340;48.534;-3.036;2024-01-15T12:02:47;13.10;57.70
75719;DHT22;64340;48.534;-3.036;2024-01-15T12:05:14;13.00;57.90
75719;DHT22;64340;48.534;-3.036;2024-01-15T12:07:41;13.10;58.00
75719;DHT22;64340;48.534;-3.036;2024-01-15T12:10:18;13.10;57.60
75719;DHT22;64340;48.534;-3.036;2024-01-15T12:12:58;13.10;57.60
75719;DHT22;64340;48.534;-3.036;2024-01-15T12:15:29;13.10;57.30
75719;DHT22;64340;48.534;-3.036;2024-01-15T12:17:56;13.10;57.50
75719;DHT22;64340;48.534;-3.036;2024-01-15T12:20:26;13.10;57.20
75719;DHT22;64340;48.534;-3.036;2024-01-15T12:22:53;13.10;57.40
75719;DHT22;64340;48.534;-3.036;2024-01-15T12:25:19;13.10;57.50
75719;DHT22;64340;48.534;-3.036;2024-01-15T12:27:45;13.10;57.60
75719;DHT22;64340;48.534;-3.036;2024-01-15T12:30:12;13.10;57.70
75719;DHT22;64340;48.534;-3.036;2024-01-15T12:32:38;13.10;58.00
75719;DHT22;64340;48.534;-3.036;2024-01-15T12:35:04;13.00;57.70
75719;DHT22;64340;48.534;-3.036;2024-01-15T12:37:30;13.10;57.60
75719;DHT22;64340;48.534;-3.036;2024-01-15T12:39:56;13.10;57.40
75719;DHT22;64340;48.534;-3.036;2024-01-15T12:42:24;13.10;57.60
75719;DHT22;64340;48.534;-3.036;2024-01-15T12:44:50;13.10;57.60
75719;DHT22;64340;48.534;-3.036;2024-01-15T12:47:15;13.10;57.60
75719;DHT22;64340;48.534;-3.036;2024-01-15T12:49:47;13.10;57.30
75719;DHT22;64340;48.534;-3.036;2024-01-15T12:52:18;13.00;57.40
75719;DHT22;64340;48.534;-3.036;2024-01-15T12:54:44;13.10;57.40
75719;DHT22;64340;48.534;-3.036;2024-01-15T12:57:09;13.10;57.10
75719;DHT22;64340;48.534;-3.036;2024-01-15T12:59:35;13.00;57.00
75719;DHT22;64340;48.534;-3.036;2024-01-15T13:02:01;13.00;57.00
75719;DHT22;64340;48.534;-3.036;2024-01-15T13:04:27;13.00;56.50
75719;DHT22;64340;48.534;-3.036;2024-01-15T13:06:52;13.00;56.70
75719;DHT22;64340;48.534;-3.036;2024-01-15T13:09:18;13.00;56.50
75719;DHT22;64340;48.534;-3.036;2024-01-15T13:11:47;13.00;56.50
75719;DHT22;64340;48.534;-3.036;2024-01-15T13:14:13;13.00;56.50
75719;DHT22;64340;48.534;-3.036;2024-01-15T13:16:40;13.00;56.30
75719;DHT22;64340;48.534;-3.036;2024-01-15T13:19:07;13.00;56.50
75719;DHT22;64340;48.534;-3.036;2024-01-15T13:21:33;12.90;56.50
75719;DHT22;64340;48.534;-3.036;2024-01-15T13:23:59;12.90;56.60
75719;DHT22;64340;48.534;-3.036;2024-01-15T13:26:25;12.90;56.50
75719;DHT22;64340;48.534;-3.036;2024-01-15T13:28:51;12.90;56.40
75719;DHT22;64340;48.534;-3.036;2024-01-15T13:31:16;12.90;56.50
75719;DHT22;64340;48.534;-3.036;2024-01-15T13:33:42;12.90;56.50
75719;DHT22;64340;48.534;-3.036;2024-01-15T13:36:08;12.90;56.50
75719;DHT22;64340;48.534;-3.036;2024-01-15T13:38:37;12.90;56.50
75719;DHT22;64340;48.534;-3.036;2024-01-15T13:41:05;12.90;56.50
75719;DHT22;64340;48.534;-3.036;2024-01-15T13:43:32;12.90;56.40
75719;DHT22;64340;48.534;-3.036;2024-01-15T13:45:59;12.90;56.50
75719;DHT22;64340;48.534;-3.036;2024-01-15T13:48:25;12.90;56.70
75719;DHT22;64340;48.534;-3.036;2024-01-15T13:50:52;12.80;56.90
75719;DHT22;64340;48.534;-3.036;2024-01-15T13:53:18;12.90;56.80
75719;DHT22;64340;48.534;-3.036;2024-01-15T13:55:44;12.90;56.90
75719;DHT22;64340;48.534;-3.036;2024-01-15T13:58:10;12.90;56.90
75719;DHT22;64340;48.534;-3.036;2024-01-15T14:00:36;12.90;56.90
75719;DHT22;64340;48.534;-3.036;2024-01-15T14:03:02;12.90;56.80
75719;DHT22;64340;48.534;-3.036;2024-01-15T14:05:28;12.90;56.70
75719;DHT22;64340;48.534;-3.036;2024-01-15T14:07:54;12.90;56.70
75719;DHT22;64340;48.534;-3.036;2024-01-15T14:10:20;12.90;56.90
75719;DHT22;64340;48.534;-3.036;2024-01-15T14:12:46;12.90;57.50
75719;DHT22;64340;48.534;-3.036;2024-01-15T14:15:12;12.90;57.10
75719;DHT22;64340;48.534;-3.036;2024-01-15T14:17:38;12.90;57.60
75719;DHT22;64340;48.534;-3.036;2024-01-15T14:20:05;12.90;57.40
75719;DHT22;64340;48.534;-3.036;2024-01-15T14:22:31;12.90;57.40
75719;DHT22;64340;48.534;-3.036;2024-01-15T14:24:57;13.00;57.40
75719;DHT22;64340;48.534;-3.036;2024-01-15T14:27:23;13.00;57.40
75719;DHT22;64340;48.534;-3.036;2024-01-15T14:29:49;13.00;57.40
75719;DHT22;64340;48.534;-3.036;2024-01-15T14:32:14;13.00;57.10
75719;DHT22;64340;48.534;-3.036;2024-01-15T14:34:40;13.00;57.00
75719;DHT22;64340;48.534;-3.036;2024-01-15T14:37:06;13.00;57.00
75719;DHT22;64340;48.534;-3.036;2024-01-15T14:39:32;13.00;57.10
75719;DHT22;64340;48.534;-3.036;2024-01-15T14:42:00;13.00;57.10
75719;DHT22;64340;48.534;-3.036;2024-01-15T14:44:26;13.00;56.80
75719;DHT22;64340;48.534;-3.036;2024-01-15T14:46:51;13.00;56.70
75719;DHT22;64340;48.534;-3.036;2024-01-15T14:49:17;13.00;56.70
75719;DHT22;64340;48.534;-3.036;2024-01-15T14:51:44;13.10;56.80
75719;DHT22;64340;48.534;-3.036;2024-01-15T14:54:10;13.00;57.00
75719;DHT22;64340;48.534;-3.036;2024-01-15T14:56:36;13.00;57.20
75719;DHT22;64340;48.534;-3.036;2024-01-15T14:59:01;13.00;57.10
75719;DHT22;64340;48.534;-3.036;2024-01-15T15:01:28;13.00;57.20
75719;DHT22;64340;48.534;-3.036;2024-01-15T15:03:53;13.00;57.20
75719;DHT22;64340;48.534;-3.036;2024-01-15T15:06:19;13.00;57.40
75719;DHT22;64340;48.534;-3.036;2024-01-15T15:08:46;13.00;57.20
75719;DHT22;64340;48.534;-3.036;2024-01-15T15:11:12;13.00;57.10
75719;DHT22;64340;48.534;-3.036;2024-01-15T15:13:40;13.00;57.20
75719;DHT22;64340;48.534;-3.036;2024-01-15T15:16:05;13.00;57.30
75719;DHT22;64340;48.534;-3.036;2024-01-15T15:18:31;12.90;57.30
75719;DHT22;64340;48.534;-3.036;2024-01-15T15:20:57;13.00;57.40
75719;DHT22;64340;48.534;-3.036;2024-01-15T15:23:23;13.00;57.40